Time;durP1;ratioP1;P1;durP2;ratioP2;P2;SDS_P1;SDS_P2;PMS_P1;PMS_P2;Temp;Humidity;BMP_temperature;BMP_pressure;BME280_temperature;BME280_humidity;BME280_pressure;Samples;Min_cycle;Max_cycle;Signal;HPM_P1;HPM_P2
2021/10/14 00:01:18;;;;;;;20.23;10.45;;;17.50;81.50;;;;;;4246648;27;20055;-74
2021/10/14 00:03:26;;;;;;;16.70;9.82;;;17.50;81.60;;;;;;4245855;27;20047;-73
2021/10/14 00:05:29;;;;;;;14.93;9.80;;;17.50;81.50;;;;;;4228248;28;20097;-73
2021/10/14 00:07:32;;;;;;;14.90;9.98;;;17.50;81.50;;;;;;4246413;27;20047;-73
2021/10/14 00:09:40;;;;;;;18.70;10.63;;;17.50;81.50;;;;;;4246569;27;20055;-73
2021/10/14 00:11:48;;;;;;;19.27;10.50;;;17.50;81.50;;;;;;4229481;28;20063;-74
2021/10/14 00:13:56;;;;;;;19.58;10.80;;;17.50;81.60;;;;;;4247963;27;20048;-74
2021/10/14 00:15:59;;;;;;;18.70;10.38;;;17.40;81.50;;;;;;4248254;27;20051;-73
2021/10/14 00:18:08;;;;;;;18.48;11.00;;;17.50;81.60;;;;;;4249228;27;20058;-74
2021/10/14 00:20:16;;;;;;;18.63;11.13;;;17.40;81.60;;;;;;4248993;27;20116;-74
2021/10/14 00:22:19;;;;;;;17.67;10.70;;;17.50;81.60;;;;;;4230421;28;20211;-73
2021/10/14 00:24:27;;;;;;;19.77;11.48;;;17.40;81.60;;;;;;4237691;28;20080;-73
2021/10/14 00:26:30;;;;;;;17.67;11.00;;;17.40;81.70;;;;;;4246087;27;20069;-73
2021/10/14 00:28:34;;;;;;;18.90;11.55;;;17.40;81.70;;;;;;4246154;28;20055;-73
2021/10/14 00:30:42;;;;;;;18.45;12.30;;;17.40;81.70;;;;;;4244382;28;20456;-74
2021/10/14 00:32:50;;;;;;;19.38;11.80;;;17.40;81.70;;;;;;4246157;28;20127;-73
2021/10/14 00:34:59;;;;;;;17.35;11.80;;;17.40;81.80;;;;;;4245477;28;20048;-73
2021/10/14 00:37:02;;;;;;;17.35;11.57;;;17.40;81.80;;;;;;4242169;28;20043;-73
2021/10/14 00:39:05;;;;;;;19.50;12.02;;;17.40;81.80;;;;;;4229899;28;20039;-73
2021/10/14 00:41:08;;;;;;;19.00;12.18;;;17.40;81.90;;;;;;4245893;28;20111;-73
2021/10/14 00:43:16;;;;;;;17.00;12.32;;;17.40;81.90;;;;;;4245811;28;20062;-73
2021/10/14 00:45:20;;;;;;;18.25;12.18;;;17.40;81.90;;;;;;4245463;28;20055;-73
2021/10/14 00:47:25;;;;;;;19.35;12.60;;;17.40;82.00;;;;;;4245854;28;20047;-73
2021/10/14 00:49:28;;;;;;;18.85;13.02;;;17.40;82.00;;;;;;4246458;27;20091;-73
2021/10/14 00:51:37;;;;;;;20.83;13.25;;;17.40;81.90;;;;;;4245565;27;20052;-74
2021/10/14 00:53:46;;;;;;;18.88;13.23;;;17.40;82.00;;;;;;4249339;27;20055;-73
2021/10/14 00:55:54;;;;;;;19.25;12.93;;;17.30;81.90;;;;;;4248985;27;20051;-73
2021/10/14 00:57:58;;;;;;;21.85;12.75;;;17.40;82.00;;;;;;4248917;27;20598;-73
2021/10/14 01:00:02;;;;;;;18.02;12.95;;;17.30;82.00;;;;;;4248863;27;20059;-73
2021/10/14 01:02:10;;;;;;;18.50;13.10;;;17.30;82.00;;;;;;4249254;27;20104;-73
2021/10/14 01:04:18;;;;;;;22.20;13.43;;;17.30;82.00;;;;;;4249732;27;20063;-73
2021/10/14 01:06:21;;;;;;;21.17;14.07;;;17.30;82.00;;;;;;4249260;27;20055;-73
2021/10/14 01:08:30;;;;;;;23.75;13.50;;;17.40;82.10;;;;;;4248999;27;20069;-73
2021/10/14 01:10:38;;;;;;;19.98;14.00;;;17.30;82.00;;;;;;4248893;27;20388;-74
2021/10/14 01:12:43;;;;;;;19.00;13.52;;;17.30;82.00;;;;;;4249832;27;20099;-73
2021/10/14 01:14:51;;;;;;;18.92;13.25;;;17.30;82.10;;;;;;4249412;27;20392;-73
2021/10/14 01:16:59;;;;;;;18.25;12.75;;;17.30;82.10;;;;;;4249044;27;20051;-73
2021/10/14 01:19:08;;;;;;;18.77;13.27;;;17.30;82.10;;;;;;4249331;27;20047;-74
2021/10/14 01:21:17;;;;;;;21.70;13.32;;;17.30;82.10;;;;;;4248803;27;20055;-73
2021/10/14 01:23:25;;;;;;;21.20;13.50;;;17.30;82.10;;;;;;4249110;27;20051;-73
2021/10/14 01:25:29;;;;;;;16.40;13.13;;;17.30;82.10;;;;;;4230874;28;20055;-73
2021/10/14 01:27:37;;;;;;;24.30;13.95;;;17.30;82.10;;;;;;4247454;27;20051;-73
2021/10/14 01:29:45;;;;;;;19.00;13.43;;;17.30;82.10;;;;;;4248764;27;20062;-73
2021/10/14 01:31:48;;;;;;;19.48;13.80;;;17.30;82.10;;;;;;4248128;27;20047;-73
2021/10/14 01:33:52;;;;;;;20.05;13.55;;;17.30;82.20;;;;;;4248756;27;20120;-73
2021/10/14 01:36:01;;;;;;;18.75;13.38;;;17.30;82.20;;;;;;4248248;27;20449;-73
2021/10/14 01:38:10;;;;;;;20.92;13.80;;;17.30;82.20;;;;;;4242685;27;20047;-73
2021/10/14 01:40:18;;;;;;;17.88;13.18;;;17.30;82.20;;;;;;4214226;28;20052;-73
2021/10/14 01:42:21;;;;;;;20.52;14.23;;;17.30;82.20;;;;;;4241940;27;20490;-73
2021/10/14 01:44:29;;;;;;;19.15;12.70;;;17.20;82.20;;;;;;4248498;27;20062;-74
2021/10/14 01:46:37;;;;;;;21.55;13.63;;;17.20;82.10;;;;;;4248266;27;20044;-73
2021/10/14 01:48:40;;;;;;;20.48;14.35;;;17.20;82.20;;;;;;4248441;27;20122;-72
2021/10/14 01:50:48;;;;;;;18.17;13.70;;;17.20;82.20;;;;;;4248522;27;20062;-73
2021/10/14 01:52:51;;;;;;;17.02;13.07;;;17.20;82.20;;;;;;4248107;27;20570;-73
2021/10/14 01:54:55;;;;;;;18.40;12.88;;;17.30;82.30;;;;;;4248055;27;20048;-73
2021/10/14 01:56:58;;;;;;;17.02;12.52;;;17.20;82.30;;;;;;4247891;27;20059;-73
2021/10/14 01:59:01;;;;;;;22.33;14.32;;;17.20;82.30;;;;;;4248166;27;20058;-73
2021/10/14 02:01:09;;;;;;;19.70;13.40;;;17.20;82.30;;;;;;4247763;27;20059;-73
2021/10/14 02:03:17;;;;;;;19.85;13.13;;;17.20;82.30;;;;;;4247707;27;20055;-73
2021/10/14 02:05:20;;;;;;;18.00;12.68;;;17.20;82.30;;;;;;4248009;27;20521;-73
2021/10/14 02:07:28;;;;;;;20.00;13.18;;;17.20;82.30;;;;;;4247918;27;20055;-73
2021/10/14 02:09:36;;;;;;;17.13;12.45;;;17.20;82.30;;;;;;4236873;27;20536;-73
2021/10/14 02:11:45;;;;;;;18.30;12.73;;;17.20;82.30;;;;;;4248275;27;20070;-73
2021/10/14 02:13:48;;;;;;;18.20;11.80;;;17.20;82.30;;;;;;4247642;27;20054;-73
2021/10/14 02:15:56;;;;;;;18.23;11.98;;;17.20;82.30;;;;;;4248011;27;20384;-73
2021/10/14 02:17:59;;;;;;;18.00;12.23;;;17.20;82.30;;;;;;4247646;27;20120;-73
2021/10/14 02:20:03;;;;;;;19.35;12.05;;;17.20;82.30;;;;;;4247980;27;20054;-72
2021/10/14 02:22:06;;;;;;;20.05;12.00;;;17.20;82.40;;;;;;4247895;27;20047;-73
2021/10/14 02:24:09;;;;;;;18.13;11.80;;;17.20;82.30;;;;;;4247398;27;20568;-73
2021/10/14 02:26:17;;;;;;;19.58;11.95;;;17.10;82.20;;;;;;4247633;27;20087;-72
2021/10/14 02:28:21;;;;;;;17.73;11.82;;;17.10;82.20;;;;;;4247213;27;20108;-73
2021/10/14 02:30:29;;;;;;;19.83;12.50;;;17.10;82.30;;;;;;4229338;27;20495;-73
2021/10/14 02:32:38;;;;;;;20.50;12.85;;;17.20;82.30;;;;;;4247641;27;20051;-73
2021/10/14 02:34:41;;;;;;;16.48;12.02;;;17.10;82.30;;;;;;4247601;27;20059;-72
2021/10/14 02:36:49;;;;;;;16.42;10.57;;;17.10;82.20;;;;;;4237530;27;20047;-73
2021/10/14 02:38:56;;;;;;;17.95;12.35;;;17.10;82.20;;;;;;4247036;27;20243;-73
2021/10/14 02:41:00;;;;;;;18.60;11.60;;;17.10;82.20;;;;;;4247691;27;20093;-72
2021/10/14 02:43:03;;;;;;;16.80;10.98;;;17.10;82.20;;;;;;4247779;27;20043;-73
2021/10/14 02:45:12;;;;;;;15.93;11.13;;;17.10;82.20;;;;;;4247070;27;20112;-73
2021/10/14 02:47:20;;;;;;;17.27;10.65;;;17.10;82.20;;;;;;4247618;27;20058;-73
2021/10/14 02:49:27;;;;;;;15.05;10.57;;;17.10;82.20;;;;;;4247094;27;20115;-73
2021/10/14 02:51:35;;;;;;;14.77;10.10;;;17.10;82.20;;;;;;4247876;27;20062;-74
2021/10/14 02:53:38;;;;;;;16.00;11.07;;;17.10;82.20;;;;;;4248439;27;20051;-73
2021/10/14 02:55:46;;;;;;;16.38;10.60;;;17.10;82.20;;;;;;4246465;27;20424;-73
2021/10/14 02:57:49;;;;;;;18.88;11.00;;;17.10;82.30;;;;;;4250308;27;20453;-73
2021/10/14 02:59:52;;;;;;;13.70;9.40;;;17.10;82.30;;;;;;4249971;27;20563;-74
2021/10/14 03:02:01;;;;;;;18.90;10.55;;;17.10;82.30;;;;;;4248614;27;20051;-74
2021/10/14 03:04:09;;;;;;;15.43;10.00;;;17.10;82.30;;;;;;4247299;27;20055;-73
2021/10/14 03:06:17;;;;;;;15.40;10.20;;;17.10;82.30;;;;;;4245683;27;20116;-73
2021/10/14 03:08:20;;;;;;;14.70;10.30;;;17.10;82.30;;;;;;4246896;27;20054;-73
2021/10/14 03:10:23;;;;;;;14.55;9.98;;;17.10;82.30;;;;;;4246946;27;20043;-73
2021/10/14 03:12:31;;;;;;;13.10;9.05;;;17.00;82.20;;;;;;4246118;27;20059;-73
2021/10/14 03:14:39;;;;;;;13.20;8.98;;;17.10;82.20;;;;;;4246532;27;20051;-73
2021/10/14 03:16:46;;;;;;;17.20;9.32;;;17.10;82.20;;;;;;4246974;27;20059;-73
2021/10/14 03:18:56;;;;;;;13.10;9.15;;;17.10;82.20;;;;;;4229495;27;20079;-73
2021/10/14 03:21:04;;;;;;;11.93;8.15;;;17.10;82.20;;;;;;4246909;27;20112;-74
2021/10/14 03:23:07;;;;;;;12.93;9.27;;;17.00;82.20;;;;;;4246809;27;20051;-73
2021/10/14 03:25:10;;;;;;;12.57;8.82;;;17.00;82.10;;;;;;4246781;27;20047;-72
2021/10/14 03:27:18;;;;;;;14.38;9.57;;;17.10;82.20;;;;;;4246896;27;20510;-74
2021/10/14 03:29:25;;;;;;;14.77;8.52;;;17.00;82.10;;;;;;4246978;27;20137;-73
2021/10/14 03:31:28;;;;;;;15.25;8.55;;;17.00;82.10;;;;;;4246565;27;20067;-75
2021/10/14 03:33:36;;;;;;;10.32;7.68;;;17.00;82.10;;;;;;4246555;27;20055;-73
2021/10/14 03:35:46;;;;;;;13.73;9.00;;;17.00;82.20;;;;;;4246456;27;20055;-72
2021/10/14 03:37:49;;;;;;;15.15;9.48;;;17.00;82.10;;;;;;4244439;27;20108;-73
2021/10/14 03:39:56;;;;;;;14.38;8.38;;;17.00;82.10;;;;;;4246650;27;20051;-73
2021/10/14 03:41:59;;;;;;;11.68;8.88;;;17.00;82.20;;;;;;4246414;27;20051;-72
2021/10/14 03:44:07;;;;;;;13.40;8.00;;;17.00;82.20;;;;;;4229630;28;20056;-73
2021/10/14 03:46:10;;;;;;;12.90;8.13;;;17.00;82.20;;;;;;4237806;27;20432;-73
2021/10/14 03:48:18;;;;;;;12.13;7.68;;;17.00;82.10;;;;;;4229438;28;20047;-73
2021/10/14 03:50:26;;;;;;;12.43;7.82;;;17.00;82.20;;;;;;4246862;27;20063;-73
2021/10/14 03:52:30;;;;;;;14.50;8.48;;;17.00;82.10;;;;;;4247610;27;20452;-73
2021/10/14 03:54:38;;;;;;;11.65;7.57;;;17.00;82.20;;;;;;4247299;27;20465;-72
2021/10/14 03:56:46;;;;;;;11.75;7.95;;;17.00;82.10;;;;;;4246933;27;20055;-73
2021/10/14 03:58:49;;;;;;;12.93;7.63;;;16.90;82.10;;;;;;4246795;27;20404;-73
2021/10/14 04:00:53;;;;;;;12.05;7.43;;;16.90;82.10;;;;;;4246549;27;20039;-72
2021/10/14 04:03:01;;;;;;;10.23;6.90;;;16.90;82.10;;;;;;4243202;27;20051;-72
2021/10/14 04:05:10;;;;;;;10.13;7.00;;;16.90;82.10;;;;;;4246407;27;20427;-73
2021/10/14 04:07:17;;;;;;;13.55;7.60;;;16.90;82.10;;;;;;4246101;27;20098;-73
2021/10/14 04:09:22;;;;;;;12.50;7.25;;;16.90;82.10;;;;;;4246431;27;20043;-73
2021/10/14 04:11:29;;;;;;;14.25;7.72;;;16.90;82.00;;;;;;4246476;27;20051;-73
2021/10/14 04:13:37;;;;;;;10.18;7.70;;;16.90;82.00;;;;;;4246181;27;20066;-73
2021/10/14 04:15:45;;;;;;;13.02;6.90;;;16.90;82.10;;;;;;4246409;27;20055;-72
2021/10/14 04:17:48;;;;;;;11.02;7.28;;;16.90;82.00;;;;;;4246144;27;20116;-73
2021/10/14 04:19:56;;;;;;;10.07;6.18;;;16.90;82.00;;;;;;4246249;27;20054;-73
2021/10/14 04:21:59;;;;;;;12.38;7.45;;;16.90;82.00;;;;;;4246005;27;20097;-73
2021/10/14 04:24:07;;;;;;;9.52;6.43;;;16.90;82.10;;;;;;4234850;27;20058;-72
2021/10/14 04:26:11;;;;;;;10.98;7.32;;;16.90;82.10;;;;;;4246327;27;20051;-73
2021/10/14 04:28:14;;;;;;;9.48;6.63;;;16.90;82.10;;;;;;4245728;27;20059;-73
2021/10/14 04:30:17;;;;;;;9.35;6.72;;;16.90;82.10;;;;;;4245697;28;20548;-73
2021/10/14 04:32:21;;;;;;;12.38;7.22;;;16.90;82.10;;;;;;4234169;28;20051;-72
2021/10/14 04:34:28;;;;;;;13.80;7.57;;;16.90;82.10;;;;;;4235197;28;20384;-73
2021/10/14 04:36:37;;;;;;;10.45;6.38;;;16.90;82.10;;;;;;4246038;28;20055;-73
2021/10/14 04:38:40;;;;;;;10.40;6.68;;;16.80;82.00;;;;;;4243872;28;20104;-73
2021/10/14 04:40:47;;;;;;;11.68;7.35;;;16.80;82.00;;;;;;4245874;28;20119;-72
2021/10/14 04:42:52;;;;;;;10.77;6.03;;;16.90;82.10;;;;;;4227854;28;20140;-73
2021/10/14 04:45:00;;;;;;;9.65;6.47;;;16.90;82.10;;;;;;4228508;28;20427;-73
2021/10/14 04:47:04;;;;;;;10.65;7.07;;;16.80;82.00;;;;;;4245976;28;20063;-72
2021/10/14 04:49:07;;;;;;;15.25;6.97;;;16.80;82.10;;;;;;4245890;28;20058;-73
2021/10/14 04:51:10;;;;;;;11.00;6.30;;;16.80;82.10;;;;;;4246003;28;20069;-73
2021/10/14 04:53:18;;;;;;;11.70;6.35;;;16.90;82.10;;;;;;4246804;28;20055;-73
2021/10/14 04:55:21;;;;;;;12.48;6.60;;;16.80;82.00;;;;;;4245931;28;20124;-74
2021/10/14 04:57:28;;;;;;;10.43;6.50;;;16.80;82.10;;;;;;4246428;28;20057;-74
2021/10/14 04:59:33;;;;;;;13.10;6.90;;;16.80;82.10;;;;;;4246027;28;20043;-73
2021/10/14 05:01:41;;;;;;;9.75;6.20;;;16.80;82.10;;;;;;4229463;28;20136;-73
2021/10/14 05:03:48;;;;;;;11.15;5.85;;;16.80;82.00;;;;;;4237329;28;20492;-73
2021/10/14 05:05:56;;;;;;;9.30;5.90;;;16.80;82.10;;;;;;4228061;28;20062;-73
2021/10/14 05:08:06;;;;;;;10.80;6.28;;;16.80;82.10;;;;;;4245828;28;20635;-72
2021/10/14 05:10:09;;;;;;;10.35;5.80;;;16.80;82.10;;;;;;4241844;28;20051;-73
2021/10/14 05:12:19;;;;;;;12.65;6.72;;;16.80;82.00;;;;;;4246133;28;20055;-73
2021/10/14 05:14:27;;;;;;;11.50;5.90;;;16.80;82.00;;;;;;4245784;28;20516;-73
2021/10/14 05:16:34;;;;;;;9.48;6.25;;;16.80;82.10;;;;;;4245542;28;20066;-73
2021/10/14 05:18:37;;;;;;;11.85;6.53;;;16.80;82.10;;;;;;4245256;28;20051;-73
2021/10/14 05:20:40;;;;;;;10.20;6.10;;;16.80;82.10;;;;;;4245793;28;20107;-73
2021/10/14 05:22:48;;;;;;;10.43;6.28;;;16.80;81.90;;;;;;4245846;28;20059;-73
2021/10/14 05:24:51;;;;;;;10.57;5.72;;;16.80;82.00;;;;;;4245245;28;20062;-72
2021/10/14 05:26:59;;;;;;;9.25;5.80;;;16.80;82.00;;;;;;4245396;28;20490;-73
2021/10/14 05:29:02;;;;;;;9.85;5.95;;;16.80;82.00;;;;;;4245089;28;20484;-74
2021/10/14 05:31:06;;;;;;;12.43;6.15;;;16.70;82.00;;;;;;4245715;28;20039;-73
2021/10/14 05:33:11;;;;;;;11.05;5.97;;;16.70;82.00;;;;;;4246578;28;20051;-73
2021/10/14 05:35:14;;;;;;;9.50;5.82;;;16.80;82.00;;;;;;4246845;27;20098;-73
2021/10/14 05:37:17;;;;;;;10.63;6.32;;;16.70;82.00;;;;;;4244325;27;20063;-75
2021/10/14 05:39:25;;;;;;;10.25;6.07;;;16.80;82.00;;;;;;4237019;27;20075;-73
2021/10/14 05:41:28;;;;;;;12.00;6.45;;;16.70;82.00;;;;;;4249824;27;20072;-73
2021/10/14 05:43:31;;;;;;;10.30;6.13;;;16.70;82.00;;;;;;4249334;27;20059;-74
2021/10/14 05:45:39;;;;;;;12.45;6.53;;;16.70;82.00;;;;;;4249015;27;20055;-73
2021/10/14 05:47:42;;;;;;;11.18;5.90;;;16.70;82.00;;;;;;4249219;27;20051;-72
2021/10/14 05:49:46;;;;;;;11.13;6.05;;;16.70;82.00;;;;;;4249073;27;20583;-74
2021/10/14 05:51:49;;;;;;;9.20;6.07;;;16.70;82.00;;;;;;4248518;27;20044;-73
2021/10/14 05:53:57;;;;;;;10.00;6.60;;;16.70;82.00;;;;;;4248574;27;20475;-72
2021/10/14 05:56:05;;;;;;;9.63;6.15;;;16.70;82.00;;;;;;4248274;27;20116;-73
2021/10/14 05:58:08;;;;;;;9.85;5.95;;;16.70;82.00;;;;;;4248280;27;20618;-73
2021/10/14 06:00:12;;;;;;;10.95;6.35;;;16.70;82.00;;;;;;4248396;27;20035;-73
2021/10/14 06:02:20;;;;;;;10.68;6.05;;;16.70;82.00;;;;;;4236911;27;20056;-74
2021/10/14 06:04:28;;;;;;;11.85;6.43;;;16.70;82.00;;;;;;4248581;27;20116;-73
2021/10/14 06:06:37;;;;;;;15.52;6.20;;;16.70;82.00;;;;;;4247989;27;20112;-72
2021/10/14 06:08:45;;;;;;;11.35;6.30;;;16.70;82.00;;;;;;4248386;27;20066;-72
2021/10/14 06:10:48;;;;;;;12.43;6.45;;;16.70;82.00;;;;;;4229915;28;20097;-73
2021/10/14 06:12:51;;;;;;;11.00;6.05;;;16.70;82.00;;;;;;4248148;27;20047;-72
2021/10/14 06:14:59;;;;;;;11.27;6.60;;;16.70;82.00;;;;;;4248195;27;20104;-73
2021/10/14 06:17:07;;;;;;;13.25;7.30;;;16.70;82.00;;;;;;4248243;27;20055;-73
2021/10/14 06:19:10;;;;;;;16.70;6.82;;;16.70;82.00;;;;;;4248604;27;20551;-73
2021/10/14 06:21:13;;;;;;;15.43;7.43;;;16.70;82.00;;;;;;4247378;27;20047;-73
2021/10/14 06:23:22;;;;;;;12.32;6.80;;;16.70;82.00;;;;;;4248060;27;20055;-73
2021/10/14 06:25:30;;;;;;;14.90;7.10;;;16.70;81.90;;;;;;4247859;27;20485;-72
2021/10/14 06:27:38;;;;;;;12.90;6.72;;;16.60;81.90;;;;;;4246434;27;20123;-73
2021/10/14 06:29:46;;;;;;;13.10;6.90;;;16.60;81.90;;;;;;4247755;27;20052;-73
2021/10/14 06:31:52;;;;;;;14.25;6.53;;;16.70;82.00;;;;;;4247239;27;20091;-73
2021/10/14 06:34:00;;;;;;;16.52;6.90;;;16.60;81.90;;;;;;4247548;27;20110;-74
2021/10/14 06:36:08;;;;;;;12.48;6.57;;;16.60;81.90;;;;;;4247425;27;20063;-73
2021/10/14 06:38:16;;;;;;;15.25;7.53;;;16.60;82.00;;;;;;4236939;27;20055;-73
2021/10/14 06:40:21;;;;;;;13.95;6.72;;;16.60;81.90;;;;;;4247785;27;20065;-73
2021/10/14 06:42:29;;;;;;;14.32;6.80;;;16.70;82.00;;;;;;4247508;27;20055;-73
2021/10/14 06:44:32;;;;;;;11.88;7.00;;;16.60;81.90;;;;;;4247516;27;20051;-74
2021/10/14 06:46:41;;;;;;;14.68;7.05;;;16.60;81.90;;;;;;4247529;27;20120;-74
2021/10/14 06:48:48;;;;;;;12.60;6.72;;;16.60;82.00;;;;;;4247293;27;20051;-73
2021/10/14 06:50:58;;;;;;;16.75;7.80;;;16.60;82.00;;;;;;4247587;27;20047;-73
2021/10/14 06:53:03;;;;;;;16.35;7.13;;;16.60;82.00;;;;;;4247197;27;20107;-73
2021/10/14 06:55:11;;;;;;;19.42;7.90;;;16.60;82.00;;;;;;4247317;27;20065;-73
2021/10/14 06:57:20;;;;;;;15.95;7.20;;;16.60;82.00;;;;;;4247300;27;20111;-72
2021/10/14 06:59:28;;;;;;;18.17;7.95;;;16.60;81.90;;;;;;4229360;28;20137;-73
2021/10/14 07:01:36;;;;;;;15.60;7.15;;;16.60;81.90;;;;;;4247339;27;20055;-73
2021/10/14 07:03:39;;;;;;;14.35;7.15;;;16.60;81.90;;;;;;4247212;27;20051;-73
2021/10/14 07:05:47;;;;;;;16.52;7.15;;;16.60;81.90;;;;;;4230302;28;20056;-73
2021/10/14 07:07:50;;;;;;;16.40;8.13;;;16.60;82.00;;;;;;4237848;27;20051;-73
2021/10/14 07:09:58;;;;;;;17.58;7.93;;;16.60;82.00;;;;;;4247406;27;20233;-73
2021/10/14 07:12:10;;;;;;;16.88;7.72;;;16.60;82.00;;;;;;4246955;27;20062;-73
2021/10/14 07:14:14;;;;;;;13.55;7.38;;;16.60;82.00;;;;;;4246560;27;20122;-73
2021/10/14 07:16:17;;;;;;;13.10;7.13;;;16.60;82.00;;;;;;4246927;27;20055;-73
2021/10/14 07:18:20;;;;;;;16.77;7.68;;;16.60;82.00;;;;;;4246725;27;20051;-73
2021/10/14 07:20:24;;;;;;;15.73;8.05;;;16.60;82.00;;;;;;4247219;27;20076;-74
2021/10/14 07:22:27;;;;;;;16.02;7.63;;;16.60;82.00;;;;;;4246652;27;20051;-73
2021/10/14 07:24:34;;;;;;;13.13;6.45;;;16.60;82.00;;;;;;4246195;27;20055;-73
2021/10/14 07:26:37;;;;;;;16.95;7.38;;;16.60;82.00;;;;;;4246663;27;20070;-73
2021/10/14 07:28:40;;;;;;;13.10;7.13;;;16.60;82.00;;;;;;4246452;27;20040;-73
2021/10/14 07:30:52;;;;;;;21.05;8.07;;;16.60;82.00;;;;;;4246633;27;20050;-73
2021/10/14 07:33:03;;;;;;;14.10;7.50;;;16.60;82.00;;;;;;4246783;27;20116;-73
2021/10/14 07:35:11;;;;;;;16.15;7.75;;;16.60;82.00;;;;;;4246554;27;20051;-73
2021/10/14 07:37:19;;;;;;;16.42;7.93;;;16.60;82.00;;;;;;4240529;27;20534;-73
2021/10/14 07:39:27;;;;;;;15.43;7.30;;;16.60;82.00;;;;;;4242282;27;20070;-72
2021/10/14 07:41:35;;;;;;;16.58;7.53;;;16.60;82.00;;;;;;4246723;27;20487;-72
2021/10/14 07:43:38;;;;;;;15.80;8.23;;;16.60;82.00;;;;;;4246242;27;20051;-73
2021/10/14 07:45:47;;;;;;;11.52;7.20;;;16.60;82.00;;;;;;4234958;27;20092;-75
2021/10/14 07:47:56;;;;;;;16.85;8.10;;;16.60;82.00;;;;;;4246554;27;20514;-73
2021/10/14 07:49:59;;;;;;;15.85;7.10;;;16.60;82.00;;;;;;4246303;27;20417;-72
2021/10/14 07:52:02;;;;;;;19.52;8.05;;;16.60;82.00;;;;;;4246572;27;20111;-73
2021/10/14 07:54:10;;;;;;;21.13;8.02;;;16.60;82.00;;;;;;4246344;27;20119;-73
2021/10/14 07:56:18;;;;;;;13.27;7.20;;;16.60;82.00;;;;;;4246379;27;20077;-74
2021/10/14 07:58:26;;;;;;;14.63;7.70;;;16.60;82.00;;;;;;4245969;27;20434;-73
2021/10/14 08:00:29;;;;;;;15.55;8.02;;;16.60;82.00;;;;;;4245866;27;20055;-72
2021/10/14 08:02:32;;;;;;;15.38;7.35;;;16.60;82.00;;;;;;4246416;27;20062;-73
2021/10/14 08:04:41;;;;;;;18.92;7.75;;;16.60;82.00;;;;;;4245726;27;20047;-73
2021/10/14 08:06:49;;;;;;;15.95;8.27;;;16.60;82.00;;;;;;4246369;27;20074;-73
2021/10/14 08:08:52;;;;;;;14.63;7.50;;;16.60;82.10;;;;;;4243451;27;20062;-73
2021/10/14 08:11:00;;;;;;;16.98;8.13;;;16.60;82.00;;;;;;4254952;27;20080;-73
2021/10/14 08:13:13;;;;;;;22.42;7.78;;;16.60;82.00;;;;;;4246874;27;20054;-73
2021/10/14 08:15:18;;;;;;;16.23;7.95;;;16.60;82.00;;;;;;4247722;27;20054;-73
2021/10/14 08:17:21;;;;;;;15.88;7.95;;;16.60;82.00;;;;;;4250655;27;20111;-74
2021/10/14 08:19:29;;;;;;;23.58;8.65;;;16.60;82.10;;;;;;4251139;27;20055;-75
2021/10/14 08:21:38;;;;;;;29.67;9.10;;;16.70;82.20;;;;;;4246232;27;20538;-74
2021/10/14 08:23:46;;;;;;;26.63;9.63;;;16.70;82.20;;;;;;4255273;27;20057;-74
2021/10/14 08:25:54;;;;;;;29.95;9.75;;;16.70;83.00;;;;;;4255094;27;20104;-73
2021/10/14 08:27:58;;;;;;;24.45;8.95;;;16.70;82.40;;;;;;4247313;27;20059;-75
2021/10/14 08:30:02;;;;;;;42.97;11.05;;;16.70;82.50;;;;;;4246478;27;20380;-74
2021/10/14 08:32:10;;;;;;;32.75;12.35;;;16.80;83.10;;;;;;4247554;28;20059;-72
2021/10/14 08:34:13;;;;;;;37.70;11.98;;;16.70;84.10;;;;;;4247034;28;20480;-73
2021/10/14 08:36:21;;;;;;;36.75;10.98;;;16.70;84.30;;;;;;4245067;28;20047;-73
2021/10/14 08:38:30;;;;;;;41.53;11.82;;;16.80;83.80;;;;;;4230353;28;20055;-72
2021/10/14 08:40:39;;;;;;;52.97;12.88;;;16.80;83.70;;;;;;4236516;28;20039;-70
2021/10/14 08:42:47;;;;;;;43.22;12.55;;;16.80;84.50;;;;;;4235880;28;20479;-72
2021/10/14 08:44:51;;;;;;;44.30;12.48;;;16.80;84.50;;;;;;4249092;28;20051;-72
2021/10/14 08:46:59;;;;;;;43.28;12.48;;;16.80;84.70;;;;;;4232878;28;20094;-73
2021/10/14 08:49:08;;;;;;;89.00;13.98;;;16.90;84.50;;;;;;4244303;28;20051;-72
2021/10/14 08:51:11;;;;;;;90.97;15.82;;;16.90;84.20;;;;;;4244114;28;20053;-71
2021/10/14 08:53:19;;;;;;;73.32;14.07;;;16.90;84.10;;;;;;4244444;28;20051;-72
2021/10/14 08:55:23;;;;;;;88.22;14.60;;;16.90;83.90;;;;;;4244256;28;20055;-72
2021/10/14 08:57:29;;;;;;;89.10;16.40;;;16.90;83.80;;;;;;4243865;28;20051;-72
2021/10/14 08:59:33;;;;;;;74.10;14.50;;;16.90;83.70;;;;;;4244515;28;20104;-73
2021/10/14 09:01:41;;;;;;;94.30;16.63;;;16.90;84.10;;;;;;4243791;28;20051;-72
2021/10/14 09:03:51;;;;;;;86.55;16.00;;;16.90;83.40;;;;;;4225856;28;20055;-73
2021/10/14 09:05:59;;;;;;;104.72;17.45;;;16.90;83.30;;;;;;4243048;28;20047;-73
2021/10/14 09:08:11;;;;;;;194.95;23.08;;;17.00;83.30;;;;;;4241008;28;20564;-73
2021/10/14 09:10:19;;;;;;;162.13;21.33;;;17.00;83.00;;;;;;4245144;27;20432;-73
2021/10/14 09:12:34;;;;;;;162.75;21.25;;;17.00;83.10;;;;;;4247226;27;20051;-73
2021/10/14 09:14:55;;;;;;;153.32;20.17;;;17.00;83.10;;;;;;4247674;27;20047;-73
2021/10/14 09:16:58;;;;;;;133.20;17.95;;;17.00;83.00;;;;;;4247540;27;20449;-74
2021/10/14 09:19:12;;;;;;;94.18;16.67;;;17.00;83.00;;;;;;4248619;27;20748;-74
2021/10/14 09:21:26;;;;;;;104.97;17.42;;;17.00;82.90;;;;;;4248785;27;20062;-73
2021/10/14 09:23:34;;;;;;;73.82;15.63;;;17.00;83.00;;;;;;4248153;27;20055;-73
2021/10/14 09:25:38;;;;;;;79.80;16.45;;;17.00;82.90;;;;;;4249176;27;20050;-72
2021/10/14 09:27:44;;;;;;;72.18;16.23;;;17.10;82.90;;;;;;4248599;27;20055;-72
2021/10/14 09:29:52;;;;;;;84.10;15.82;;;17.10;82.80;;;;;;4248937;27;20388;-73
2021/10/14 09:32:01;;;;;;;54.55;13.57;;;17.10;82.70;;;;;;4248411;27;20448;-72
2021/10/14 09:34:24;;;;;;;59.28;14.15;;;17.00;82.60;;;;;;4248816;27;20062;-73
2021/10/14 09:36:28;;;;;;;51.03;13.38;;;17.10;82.70;;;;;;4248778;27;20104;-73
2021/10/14 09:38:32;;;;;;;44.40;12.32;;;17.10;82.60;;;;;;4246088;27;20121;-72
2021/10/14 09:40:35;;;;;;;46.78;12.60;;;17.10;82.70;;;;;;4248485;27;20504;-73
2021/10/14 09:42:52;;;;;;;41.60;13.05;;;17.10;82.60;;;;;;4248718;27;20115;-73
2021/10/14 09:44:55;;;;;;;41.88;12.35;;;17.10;82.50;;;;;;4238369;27;20054;-74
2021/10/14 09:46:58;;;;;;;45.03;11.73;;;17.10;82.40;;;;;;4248568;27;20514;-73
2021/10/14 09:49:01;;;;;;;52.00;11.93;;;17.10;82.40;;;;;;4247750;27;20112;-73
2021/10/14 09:51:10;;;;;;;38.17;12.02;;;17.10;82.40;;;;;;4248047;27;20100;-74
2021/10/14 09:53:20;;;;;;;42.35;11.77;;;17.20;82.50;;;;;;4247966;27;20051;-72
2021/10/14 09:55:24;;;;;;;36.30;11.43;;;17.20;82.40;;;;;;4248170;27;20484;-73
2021/10/14 09:57:27;;;;;;;36.15;11.82;;;17.20;82.50;;;;;;4247910;27;20094;-74
2021/10/14 09:59:38;;;;;;;49.22;11.70;;;17.20;82.50;;;;;;4248042;27;20116;-73
2021/10/14 10:01:41;;;;;;;30.05;9.35;;;17.20;82.50;;;;;;4231116;28;20056;-74
2021/10/14 10:03:49;;;;;;;34.45;10.77;;;17.20;82.40;;;;;;4239853;27;20047;-73
2021/10/14 10:06:02;;;;;;;30.75;10.50;;;17.20;82.40;;;;;;4247979;27;20220;-72
2021/10/14 10:08:13;;;;;;;40.33;10.27;;;17.20;82.50;;;;;;4248136;27;20479;-75
2021/10/14 10:10:21;;;;;;;32.20;10.90;;;17.20;82.40;;;;;;4248574;27;20108;-73
2021/10/14 10:12:29;;;;;;;35.28;10.32;;;17.20;82.40;;;;;;4248440;27;20411;-73
2021/10/14 10:14:39;;;;;;;27.67;9.45;;;17.20;82.40;;;;;;4248793;27;20396;-72
2021/10/14 10:16:57;;;;;;;36.73;11.20;;;17.20;82.30;;;;;;4248798;27;20537;-73
2021/10/14 10:19:02;;;;;;;29.85;9.57;;;17.30;82.30;;;;;;4248206;27;20434;-73
2021/10/14 10:21:40;;;;;;;22.38;8.60;;;17.20;82.30;;;;;;4247963;27;20556;-74
2021/10/14 10:23:47;;;;;;;25.15;9.07;;;17.30;82.40;;;;;;4229788;28;20051;-74
2021/10/14 10:25:50;;;;;;;29.15;9.07;;;17.30;82.30;;;;;;4248246;27;20452;-73
2021/10/14 10:27:59;;;;;;;19.15;8.23;;;17.30;82.20;;;;;;4248041;27;20445;-74
2021/10/14 10:30:08;;;;;;;21.52;7.68;;;17.30;82.20;;;;;;4248193;27;20063;-72
2021/10/14 10:32:17;;;;;;;20.52;7.78;;;17.30;82.20;;;;;;4247336;27;20051;-73
2021/10/14 10:34:55;;;;;;;20.20;7.45;;;17.30;82.20;;;;;;4247738;27;20047;-73
2021/10/14 10:37:10;;;;;;;16.73;7.47;;;17.30;82.10;;;;;;4237211;27;20048;-73
2021/10/14 10:39:40;;;;;;;25.23;7.07;;;17.30;81.90;;;;;;4232967;27;20062;-75
2021/10/14 10:41:42;;;;;;;25.85;6.68;;;17.40;82.00;;;;;;4236848;27;20050;-73
2021/10/14 10:43:47;;;;;;;36.92;8.05;;;17.40;82.00;;;;;;4247736;27;20055;-74
2021/10/14 10:45:52;;;;;;;39.88;9.20;;;17.40;82.00;;;;;;4246976;27;20051;-73
2021/10/14 10:48:03;;;;;;;55.92;9.50;;;17.40;81.90;;;;;;4247451;27;20108;-73